Aérodrome :
LOGIN :

S'inscrire | Disclaimer

   EN    FR    IT 

 










Légende :    VFR   VFR Marginal   IFR   IFR Intensif   IFR Très Intensif
Visi : 
Plafond : 
>= 8 km
>= 3000ft
5 à 8 km
1000 à 3000 ft
1500m à 5 km
500 à 1000 ft
800 à 1500m
200 à 500 ft
< 800m
< 200 ft
Symboles :   Orages  Brouillard  Fortes neiges  Fortes précipitations  Vent > 20 kt
SIGMETs :   Divers  Orages  Givrage  Turbulence  Onde Orograph.  Cendres Volcan.






- Altitude de l'aérodrome : 659 ft
- Code IATA : LGG


EBLG - Liège

DERNIER METAR :
  • 280820Z 33004KT 3000 BR SCT003 BKN005 02/01 Q0997 TEMPO 0500 FG BKN002

METARs EXPIRÉS :
  • 280750Z 35004KT 3000 BR SCT003 BKN005 02/01 Q0996 TEMPO 0500 FG BKN002
  • 280720Z 36003KT 3000 BR SCT003 BKN004 02/01 Q0996 TEMPO 0500 FG BKN002
  • 280650Z 36005KT 2600 BR SCT002 BKN003 02/01 Q0996 TEMPO 0500 FG BKN002
  • 280620Z 01005KT 2000 R22L/P2000N R22R/P2000N R04R/1400U BR SCT002 BKN003 02/01 Q0995 TEMPO 0500 FG
  • 280550Z 36005KT 320V040 0300 R22L/0900N R22R/0800N R04R/0800D FG SCT001 BKN002 02/01 Q0995 NOSIG

TAF TAF EBLG
Valide du 28 à 06h jusqu'au 29 à 12h UTC


280503Z 2806/2912 34005KT 7000 SCT007 BKN012
TEMPO 2806/2811 3000 BR BKN006
PROB30
TEMPO 2806/2810 BKN004
PROB30
TEMPO 2814/2818 3000 SHRASN BKN005 BKN011TCU
PROB40
TEMPO 2818/2905 2000 BR BKN003
PROB30
TEMPO 2905/2912 3500 SHRASN BKN005 BKN011TCU



MET'MAP, la Météo Aéronautique d'un coup d'oeil ! - Copyright ORBIFLY Décembre 2007 - Disclaimer

ORBIFLY MET'MAP TEAM :

Programmation & Développement : Alexandra Zaïnal
Sur une idée originale de : Baudouin d'Aumeries
Assistance à la programmation : Marc-Olivier Méhu
Soutien technique & logistique : Manuel Goepfert

Contact : metmap@orbifly.com




SOURCES & CREDITS :

   NOAA